KMFE

Mc Allen Miller International Airport

Mc Allen, Texas, USA
METAR KMFE 242353Z 11013KT 10SM SCT043 BKN050 33/23 A2993 RMK AO2 SLP133 T03330233 10372 20328 55004
Observed Flight Rules
May-24 @ 23:53 UTC (56 minutes ago) Visual Flight Rules
Wind Visibility Clouds
110° at 13 knots 10 miles
  • Scattered at 4,300' AGL
  • Broken at 5,000' AGL
Temperatures Readings
Current 33°C / 91°F
Dewpoint 23°C / 73°F
Humidity 56%
Altimeter 29.93" Hg
Pressure 1013.3 hPa
Elevation 38
METAR KMFE 242353Z 11013KT 10SM SCT043 BKN050 33/23 A2993 RMK AO2 SLP133 T03330233 10372 20328 55004
Observed Flight Rules
May-24 @ 23:53 UTC
(56 minutes ago)
VFR
Wind Visibility
110° at 13 knots 10 miles
Clouds
  • Scattered at 4,300' AGL
  • Broken at 5,000' AGL
Temperature Dewpoint
33°C / 91°F 23°C / 73°F
Humidity Altimeter Pressure
56% 29.93" Hg 1013.3 hPa